createdAt,value
2016-11-12T00:01:07.469Z,61.71
2016-11-12T00:02:21.583Z,61.52
2016-11-12T00:03:35.876Z,61.05
2016-11-12T00:04:49.875Z,61.05
2016-11-12T00:06:04.204Z,60.95
2016-11-12T00:07:18.237Z,61.05
2016-11-12T00:08:32.535Z,60.83
2016-11-12T00:10:01.210Z,60.47
2016-11-12T00:11:16.062Z,61.05
2016-11-12T00:12:45.364Z,62.24
2016-11-12T00:14:14.433Z,62.24
2016-11-12T00:15:28.413Z,62.24
2016-11-12T00:16:42.428Z,62.43
2016-11-12T00:17:56.609Z,61.87
2016-11-12T00:19:12.272Z,62.24
2016-11-12T00:20:26.766Z,62.15
2016-11-12T00:21:41.385Z,62.15
2016-11-12T00:23:12.558Z,62.34
2016-11-12T00:24:26.808Z,62.43
2016-11-12T00:25:40.599Z,62.15
2016-11-12T00:26:54.226Z,62.15
2016-11-12T00:28:08.472Z,62.15
2016-11-12T00:29:22.602Z,62.08
2016-11-12T00:30:36.727Z,61.68
2016-11-12T00:31:50.900Z,61.11
2016-11-12T00:33:05.340Z,61.87
2016-11-12T00:34:19.159Z,61.96
2016-11-12T00:35:33.000Z,62.05
2016-11-12T00:36:47.082Z,61.68
2016-11-12T00:38:03.373Z,62.24
2016-11-12T00:39:18.623Z,62.53
2016-11-12T00:40:32.495Z,62.15
2016-11-12T00:41:46.652Z,62.24
2016-11-12T00:43:01.649Z,62.18
2016-11-12T00:44:16.672Z,62.34
2016-11-12T00:45:30.904Z,62.62
2016-11-12T00:46:55.328Z,62.82
2016-11-12T00:48:24.613Z,62.75
2016-11-12T00:49:38.948Z,62.56
2016-11-12T00:50:53.884Z,62.85
2016-11-12T00:52:08.825Z,62.62
2016-11-12T00:53:25.260Z,62.75
2016-11-12T00:54:40.345Z,62.18
2016-11-12T00:55:54.744Z,62.66
2016-11-12T00:57:09.334Z,63.23
2016-11-12T00:58:25.042Z,62.75
2016-11-12T00:59:39.728Z,62.66
2016-11-12T01:00:53.730Z,62.72
2016-11-12T01:02:07.871Z,62.28
2016-11-12T01:03:21.710Z,62.37
2016-11-12T01:04:35.724Z,62.66
2016-11-12T01:05:50.145Z,62.47
2016-11-12T01:07:04.722Z,62.85
2016-11-12T01:08:18.944Z,63.01
2016-11-12T01:09:32.854Z,62.53
2016-11-12T01:10:47.403Z,62.53
2016-11-12T01:12:01.747Z,62.28
2016-11-12T01:13:16.844Z,62.37
2016-11-12T01:14:31.649Z,62.08
2016-11-12T01:15:46.520Z,62.53
2016-11-12T01:17:00.021Z,62.05
2016-11-12T01:18:14.807Z,62.08
2016-11-12T01:19:28.971Z,61.99
2016-11-12T01:20:42.708Z,60.86
2016-11-12T01:21:56.682Z,60.1
2016-11-12T01:23:10.342Z,60.54
2016-11-12T01:24:39.316Z,60.44
2016-11-12T01:25:53.644Z,60.16
2016-11-12T01:27:22.550Z,60.44
2016-11-12T01:28:51.067Z,60.83
2016-11-12T01:30:05.818Z,60.47
2016-11-12T01:31:20.759Z,60.86
2016-11-12T01:32:35.446Z,60.47
2016-11-12T01:33:50.693Z,60.57
2016-11-12T01:35:05.455Z,60.95
2016-11-12T01:36:19.899Z,61.05
2016-11-12T01:37:34.248Z,61.24
2016-11-12T01:38:48.277Z,60.57
2016-11-12T01:40:17.138Z,61.14
2016-11-12T01:41:31.198Z,60.76
2016-11-12T01:42:45.105Z,60.57
2016-11-12T01:43:58.593Z,60.47
2016-11-12T01:45:12.236Z,60.19
2016-11-12T01:46:26.499Z,60.19
2016-11-12T01:47:40.564Z,60.76
2016-11-12T01:48:54.568Z,60.57
2016-11-12T01:50:08.561Z,60.57
2016-11-12T01:51:22.540Z,61.21
2016-11-12T01:52:36.462Z,61.24
2016-11-12T01:53:50.944Z,61.49
2016-11-12T01:55:05.329Z,61.14
2016-11-12T01:56:21.061Z,60.95
2016-11-12T01:57:35.184Z,61.05
2016-11-12T01:58:49.198Z,60.92
2016-11-12T02:00:03.802Z,60.95
2016-11-12T02:01:17.674Z,61.14
2016-11-12T02:02:31.524Z,61.52
2016-11-12T02:03:45.535Z,61.43
2016-11-12T02:04:59.538Z,61.11
2016-11-12T02:06:13.672Z,61.14
2016-11-12T02:07:27.727Z,61.05
2016-11-12T02:08:41.597Z,61.14
2016-11-12T02:09:55.336Z,61.14
2016-11-12T02:11:09.733Z,61.24
2016-11-12T02:12:23.983Z,61.24
2016-11-12T02:13:38.484Z,61.24
2016-11-12T02:14:52.267Z,61.33
2016-11-12T02:16:05.917Z,61.33
2016-11-12T02:17:20.022Z,61.24
2016-11-12T02:18:34.715Z,61.14
2016-11-12T02:19:48.938Z,61.05
2016-11-12T02:21:02.524Z,61.14
2016-11-12T02:22:16.719Z,60.86
2016-11-12T02:23:30.908Z,61.05
2016-11-12T02:24:45.436Z,61.05
2016-11-12T02:25:59.929Z,61.05
2016-11-12T02:27:13.851Z,60.67
2016-11-12T02:28:27.827Z,60.47
2016-11-12T02:29:41.689Z,60.47
2016-11-12T02:30:56.586Z,60.1
2016-11-12T02:32:10.798Z,60.47
2016-11-12T02:33:24.986Z,60.67
2016-11-12T02:34:39.064Z,60.67
2016-11-12T02:35:52.734Z,61.43
2016-11-12T02:37:06.786Z,60.95
2016-11-12T02:38:20.735Z,61.14
2016-11-12T02:39:34.860Z,60.95
2016-11-12T02:40:48.618Z,61.14
2016-11-12T02:42:02.183Z,61.52
2016-11-12T02:43:16.674Z,61.33
2016-11-12T02:44:30.373Z,61.43
2016-11-12T02:45:44.466Z,61.9
2016-11-12T02:46:58.243Z,61.33
2016-11-12T02:48:12.420Z,61.05
2016-11-12T02:49:26.512Z,61.43
2016-11-12T02:50:40.339Z,61.99
2016-11-12T02:51:54.797Z,62.08
2016-11-12T02:53:08.652Z,61.43
2016-11-12T02:54:22.651Z,61.33
2016-11-12T02:55:36.777Z,61.05
2016-11-12T02:56:50.894Z,61.9
2016-11-12T02:58:04.497Z,61.71
2016-11-12T02:59:18.498Z,62.08
2016-11-12T03:00:32.423Z,62.18
2016-11-12T03:01:46.944Z,62.47
2016-11-12T03:03:01.137Z,62.37
2016-11-12T03:04:14.991Z,62.75
2016-11-12T03:05:29.120Z,62.47
2016-11-12T03:06:43.367Z,62.91
2016-11-12T03:07:57.574Z,63.13
2016-11-12T03:09:11.743Z,62.72
2016-11-12T03:10:25.746Z,63.04
2016-11-12T03:11:39.863Z,63.2
2016-11-12T03:12:56.123Z,62.94
2016-11-12T03:14:10.887Z,63.01
2016-11-12T03:15:24.733Z,63.1
2016-11-12T03:16:38.360Z,63.1
2016-11-12T03:17:52.388Z,63.67
2016-11-12T03:19:06.513Z,63.48
2016-11-12T03:20:20.803Z,63.13
2016-11-12T03:21:34.935Z,63.13
2016-11-12T03:22:48.762Z,63.04
2016-11-12T03:24:02.643Z,62.94
2016-11-12T03:25:16.781Z,62.75
2016-11-12T03:26:30.820Z,63.04
2016-11-12T03:27:45.029Z,62.75
2016-11-12T03:28:59.334Z,62.37
2016-11-12T03:30:13.237Z,62.47
2016-11-12T03:31:27.339Z,62.47
2016-11-12T03:32:41.613Z,62.37
2016-11-12T03:34:10.510Z,62.56
2016-11-12T03:35:24.412Z,62.37
2016-11-12T03:36:38.038Z,62.37
2016-11-12T03:37:52.019Z,62.37
2016-11-12T03:39:05.871Z,62.18
2016-11-12T03:40:19.989Z,62.85
2016-11-12T03:41:33.931Z,62.75
2016-11-12T03:42:47.512Z,62.75
2016-11-12T03:44:01.422Z,62.56
2016-11-12T03:45:15.256Z,62.85
2016-11-12T03:46:29.741Z,62.66
2016-11-12T03:47:43.671Z,62.47
2016-11-12T03:48:57.216Z,63.13
2016-11-12T03:50:11.308Z,62.75
2016-11-12T03:51:25.140Z,62.94
2016-11-12T03:52:39.177Z,62.94
2016-11-12T03:53:52.867Z,63.04
2016-11-12T03:55:06.538Z,62.94
2016-11-12T03:56:20.646Z,62.91
2016-11-12T03:57:34.760Z,63.23
2016-11-12T03:58:48.635Z,63.04
2016-11-12T04:00:02.269Z,63.13
2016-11-12T04:01:16.267Z,62.24
2016-11-12T04:02:30.858Z,62.82
2016-11-12T04:03:44.802Z,63.2
2016-11-12T04:04:58.992Z,62.94
2016-11-12T04:06:12.692Z,63.01
2016-11-12T04:07:26.521Z,63.13
2016-11-12T04:08:40.964Z,62.18
2016-11-12T04:09:55.112Z,63.1
2016-11-12T04:14:06.320Z,63.2
2016-11-12T04:15:20.503Z,63.01
2016-11-12T04:16:34.330Z,63.1
2016-11-12T04:17:48.281Z,62.82
2016-11-12T04:19:02.477Z,62.91
2016-11-12T04:20:16.902Z,63.29
2016-11-12T04:21:31.563Z,63.39
2016-11-12T04:22:45.447Z,63.57
2016-11-12T04:23:59.249Z,63.67
2016-11-12T04:25:13.113Z,63.85
2016-11-12T04:26:27.587Z,63.51
2016-11-12T04:27:42.206Z,63.6
2016-11-12T04:28:55.991Z,63.48
2016-11-12T04:30:09.873Z,63.32
2016-11-12T04:31:25.939Z,63.13
2016-11-12T04:32:39.869Z,62.85
2016-11-12T04:33:54.586Z,62.94
2016-11-12T04:35:08.529Z,63.13
2016-11-12T04:39:19.684Z,63.7
2016-11-12T04:40:34.179Z,63.79
2016-11-12T04:41:48.320Z,63.13
2016-11-12T04:43:02.167Z,62.94
2016-11-12T04:44:16.028Z,63.13
2016-11-12T04:45:30.418Z,62.47
2016-11-12T04:46:45.242Z,62.56
2016-11-12T04:48:00.130Z,62.56
2016-11-12T04:49:14.306Z,62.82
2016-11-12T04:50:28.808Z,62.91
2016-11-12T04:51:42.755Z,63.2
2016-11-12T04:52:57.080Z,63.01
2016-11-12T04:54:11.048Z,62.85
2016-11-12T04:55:25.410Z,63.32
2016-11-12T04:56:39.742Z,62.91
2016-11-12T04:57:53.810Z,62.75
2016-11-12T04:59:08.498Z,62.85
2016-11-12T05:00:22.323Z,63.13
2016-11-12T05:01:36.126Z,63.6
2016-11-12T05:03:04.855Z,62.66
2016-11-12T05:04:19.168Z,62.94
2016-11-12T05:05:33.587Z,63.04
2016-11-12T05:06:48.231Z,63.13
2016-11-12T05:08:02.086Z,62.94
2016-11-12T05:09:16.101Z,62.75
2016-11-12T05:10:30.363Z,62.94
2016-11-12T05:11:44.624Z,62.75
2016-11-12T05:12:58.747Z,62.28
2016-11-12T05:14:13.368Z,62.56
2016-11-12T05:15:27.306Z,62.66
2016-11-12T05:16:41.436Z,62.75
2016-11-12T05:17:55.872Z,62.56
2016-11-12T05:19:09.926Z,62.56
2016-11-12T05:20:23.751Z,63.13
2016-11-12T05:21:37.965Z,62.85
2016-11-12T05:22:52.619Z,63.13
2016-11-12T05:24:06.722Z,63.6
2016-11-12T05:25:20.586Z,63.51
2016-11-12T05:26:34.421Z,63.51
2016-11-12T05:27:48.202Z,63.79
2016-11-12T05:29:02.533Z,63.98
2016-11-12T05:30:16.662Z,64.55
2016-11-12T05:31:30.540Z,64.36
2016-11-12T05:32:44.356Z,63.98
2016-11-12T05:33:58.556Z,64.08
2016-11-12T05:35:12.856Z,63.51
2016-11-12T05:36:26.878Z,63.89
2016-11-12T05:37:40.707Z,63.79
2016-11-12T05:38:55.153Z,63.51
2016-11-12T05:40:09.367Z,63.7
2016-11-12T05:41:23.721Z,63.51
2016-11-12T05:42:38.004Z,63.7
2016-11-12T05:43:51.927Z,63.7
2016-11-12T05:45:06.155Z,64.46
2016-11-12T05:46:20.142Z,64.55
2016-11-12T05:47:49.030Z,64.17
2016-11-12T05:49:03.153Z,64.27
2016-11-12T05:50:19.477Z,64.55
2016-11-12T05:53:03.273Z,64.17
2016-11-12T05:54:17.690Z,64.08
2016-11-12T05:55:31.831Z,64.08
2016-11-12T05:56:45.608Z,64.27
2016-11-12T05:57:59.791Z,64.08
2016-11-12T05:59:13.765Z,63.7
2016-11-12T06:00:28.326Z,64.08
2016-11-12T06:01:43.786Z,63.98
2016-11-12T06:02:58.080Z,64.08
2016-11-12T06:04:12.071Z,64.27
2016-11-12T06:05:26.231Z,64.84
2016-11-12T06:06:40.322Z,65.5
2016-11-12T06:07:57.649Z,65.09
2016-11-12T06:09:18.727Z,65.59
2016-11-12T06:10:33.668Z,65.59
2016-11-12T06:11:48.919Z,65.59
2016-11-12T06:13:03.497Z,65.12
2016-11-12T06:14:17.602Z,65.12
2016-11-12T06:15:31.608Z,64.74
2016-11-12T06:16:45.773Z,64.74
2016-11-12T06:18:05.441Z,65.12
2016-11-12T06:19:28.977Z,64.61
2016-11-12T06:22:28.419Z,65.12
2016-11-12T06:23:48.002Z,64.93
2016-11-12T06:25:03.623Z,65.5
2016-11-12T06:26:18.517Z,65.78
2016-11-12T06:27:33.031Z,65.69
2016-11-12T06:28:47.893Z,65.69
2016-11-12T06:30:02.776Z,64.84
2016-11-12T06:31:17.638Z,65.22
2016-11-12T06:32:33.209Z,64.74
2016-11-12T06:33:47.872Z,64.65
2016-11-12T06:35:04.326Z,64.74
2016-11-12T06:36:21.856Z,64.46
2016-11-12T06:37:35.931Z,66.26
2016-11-12T06:38:50.707Z,66.93
2016-11-12T06:40:04.675Z,66.35
2016-11-12T06:41:19.144Z,65.5
2016-11-12T06:42:33.840Z,64.36
2016-11-12T06:43:48.065Z,64.46
2016-11-12T06:45:02.925Z,63.98
2016-11-12T06:46:18.707Z,64.36
2016-11-12T06:47:32.739Z,64.36
2016-11-12T06:48:47.111Z,64.93
2016-11-12T06:50:02.448Z,63.98
2016-11-12T06:51:16.625Z,64.36
2016-11-12T06:52:32.538Z,64.65
2016-11-12T06:53:47.918Z,64.27
2016-11-12T06:55:06.511Z,66.64
2016-11-12T06:56:23.571Z,65.97
2016-11-12T06:57:38.145Z,64.93
2016-11-12T06:58:52.477Z,64.65
2016-11-12T07:00:06.255Z,64.93
2016-11-12T07:01:20.517Z,64.08
2016-11-12T07:02:35.076Z,63.98
2016-11-12T07:03:48.860Z,62.82
2016-11-12T07:05:02.705Z,63.01
2016-11-12T07:06:31.692Z,63.57
2016-11-12T07:08:00.627Z,64.04
2016-11-12T07:09:17.185Z,64.42
2016-11-12T07:10:30.748Z,63.85
2016-11-12T07:11:59.717Z,64.74
2016-11-12T07:13:14.229Z,65.97
2016-11-12T07:14:28.476Z,65.41
2016-11-12T07:15:42.829Z,65.78
2016-11-12T07:16:56.998Z,65.41
2016-11-12T07:18:11.124Z,64.55
2016-11-12T07:19:25.858Z,65.12
2016-11-12T07:20:39.980Z,65.12
2016-11-12T07:22:08.588Z,65.03
2016-11-12T07:23:22.699Z,65.03
2016-11-12T07:24:36.598Z,64.93
2016-11-12T07:26:05.611Z,65.12
2016-11-12T07:27:34.114Z,63.42
2016-11-12T07:28:47.901Z,64.17
2016-11-12T07:30:02.030Z,64.36
2016-11-12T07:31:15.579Z,63.42
2016-11-12T07:32:29.909Z,64.08
2016-11-12T07:35:12.041Z,63.51
2016-11-12T07:36:25.983Z,62.75
2016-11-12T07:37:41.049Z,62.56
2016-11-12T07:38:57.230Z,62.28
2016-11-12T07:40:11.016Z,64.46
2016-11-12T07:41:25.081Z,62.18
2016-11-12T07:42:38.961Z,61.71
2016-11-12T07:44:07.619Z,61.9
2016-11-12T07:45:21.450Z,61.52
2016-11-12T07:46:35.480Z,61.14
2016-11-12T07:47:49.517Z,61.14
2016-11-12T07:49:03.364Z,61.33
2016-11-12T07:50:17.531Z,61.05
2016-11-12T07:51:31.365Z,61.71
2016-11-12T07:52:45.101Z,61.9
2016-11-12T07:54:14.114Z,61.24
2016-11-12T07:55:27.702Z,61.43
2016-11-12T07:56:41.864Z,61.14
2016-11-12T07:57:55.858Z,61.05
2016-11-12T07:59:10.485Z,61.05
2016-11-12T08:00:24.251Z,61.43
2016-11-12T08:01:37.920Z,61.52
2016-11-12T08:02:52.231Z,61.33
2016-11-12T08:04:05.910Z,61.24
2016-11-12T08:05:19.930Z,61.52
2016-11-12T08:06:33.967Z,61.71
2016-11-12T08:07:47.755Z,61.99
2016-11-12T08:09:01.992Z,62.08
2016-11-12T08:10:16.236Z,62.18
2016-11-12T08:11:30.197Z,62.28
2016-11-12T08:12:43.774Z,61.33
2016-11-12T08:14:13.103Z,61.05
2016-11-12T08:15:26.897Z,61.14
2016-11-12T08:16:40.689Z,60.95
2016-11-12T08:17:54.224Z,60.67
2016-11-12T08:19:07.858Z,60.86
2016-11-12T08:20:22.068Z,60.1
2016-11-12T08:21:36.130Z,60.1
2016-11-12T08:22:50.389Z,60.28
2016-11-12T08:24:04.295Z,59.63
2016-11-12T08:25:18.211Z,59.53
2016-11-12T08:26:31.829Z,59.44
2016-11-12T08:27:48.192Z,59.94
2016-11-12T08:29:02.407Z,60.03
2016-11-12T08:30:16.880Z,60.13
2016-11-12T08:31:31.083Z,59.46
2016-11-12T08:32:44.946Z,59.56
2016-11-12T08:35:03.166Z,59.27
2016-11-12T08:36:16.848Z,59.46
2016-11-12T08:37:30.649Z,59.66
2016-11-12T08:38:44.683Z,60.13
2016-11-12T08:39:58.479Z,60.31
2016-11-12T08:41:13.612Z,60.13
2016-11-12T08:42:27.924Z,59.37
2016-11-12T08:43:43.058Z,59.46
2016-11-12T08:44:56.943Z,59.18
2016-11-12T08:46:10.753Z,58.8
2016-11-12T08:47:25.108Z,59.18
2016-11-12T08:48:39.185Z,59.46
2016-11-12T08:49:53.104Z,59.56
2016-11-12T08:51:06.936Z,59.66
2016-11-12T08:52:20.800Z,59.46
2016-11-12T08:53:34.993Z,59.08
2016-11-12T08:54:49.282Z,58.89
2016-11-12T08:56:03.233Z,58.89
2016-11-12T08:57:17.060Z,59.08
2016-11-12T08:58:30.913Z,59.08
2016-11-12T08:59:44.869Z,59.08
2016-11-12T09:00:59.017Z,58.33
2016-11-12T09:02:13.157Z,58.33
2016-11-12T09:03:27.311Z,58.7
2016-11-12T09:04:41.203Z,58.89
2016-11-12T09:05:54.862Z,58.61
2016-11-12T09:07:09.222Z,58.61
2016-11-12T09:08:23.389Z,58.61
2016-11-12T09:09:37.453Z,58.14
2016-11-12T09:10:51.293Z,58.04
2016-11-12T09:12:05.097Z,58.51
2016-11-12T09:13:34.226Z,58.8
2016-11-12T09:15:17.838Z,58.7
2016-11-12T09:17:01.122Z,58.7
2016-11-12T09:18:14.709Z,58.61
2016-11-12T09:19:28.544Z,59.08
2016-11-12T09:20:42.539Z,58.89
2016-11-12T09:21:57.178Z,59.37
2016-11-12T09:23:10.798Z,58.89
2016-11-12T09:24:24.637Z,59.18
2016-11-12T09:25:39.313Z,58.83
2016-11-12T09:26:53.131Z,58.07
2016-11-12T09:28:07.422Z,57.5
2016-11-12T09:29:35.933Z,57.4
2016-11-12T09:30:50.204Z,57.03
2016-11-12T09:32:03.969Z,56.65
2016-11-12T09:33:17.907Z,56.55
2016-11-12T09:34:32.279Z,57.12
2016-11-12T09:36:00.711Z,56.65
2016-11-12T09:37:14.727Z,57.4
2016-11-12T09:38:28.630Z,57.88
2016-11-12T09:39:42.444Z,58.36
2016-11-12T09:40:56.125Z,58.17
2016-11-12T09:42:10.215Z,57.12
2016-11-12T09:43:39.056Z,57.12
2016-11-12T09:44:52.536Z,57.03
2016-11-12T09:46:06.121Z,57.5
2016-11-12T09:47:37.243Z,57.98
2016-11-12T09:48:51.614Z,58.26
2016-11-12T09:50:06.240Z,58.73
2016-11-12T09:51:20.520Z,58.17
2016-11-12T09:52:34.339Z,58.07
2016-11-12T09:53:47.965Z,57.88
2016-11-12T09:55:02.397Z,58.07
2016-11-12T09:56:16.615Z,58.54
2016-11-12T09:57:45.567Z,58.54
2016-11-12T09:58:59.347Z,58.54
2016-11-12T10:00:13.067Z,58.73
2016-11-12T10:01:27.598Z,58.26
2016-11-12T10:02:41.633Z,58.54
2016-11-12T10:03:55.739Z,57.98
2016-11-12T10:05:10.274Z,57.79
2016-11-12T10:06:24.546Z,57.88
2016-11-12T10:07:39.252Z,58.45
2016-11-12T10:08:53.378Z,58.54
2016-11-12T10:10:07.253Z,59.11
2016-11-12T10:11:21.120Z,58.07
2016-11-12T10:12:35.338Z,58.36
2016-11-12T10:14:04.265Z,58.07
2016-11-12T10:15:18.726Z,57.69
2016-11-12T10:16:32.488Z,57.98
2016-11-12T10:17:46.194Z,58.07
2016-11-12T10:19:00.006Z,57.4
2016-11-12T10:20:13.902Z,57.59
2016-11-12T10:21:29.049Z,58.17
2016-11-12T10:22:43.145Z,57.69
2016-11-12T10:28:52.902Z,56.74
2016-11-12T10:30:06.753Z,57.12
2016-11-12T10:31:20.438Z,56.65
2016-11-12T10:32:34.047Z,55.98
2016-11-12T10:33:47.893Z,55.51
2016-11-12T10:35:01.692Z,54.85
2016-11-12T10:36:15.383Z,55.13
2016-11-12T10:37:29.955Z,55.79
2016-11-12T10:38:43.971Z,56.27
2016-11-12T10:39:57.788Z,56.08
2016-11-12T10:41:12.964Z,56.27
2016-11-12T10:42:26.759Z,55.22
2016-11-12T10:43:56.475Z,54.78
2016-11-12T10:45:11.099Z,54.68
2016-11-12T10:46:25.120Z,54.68
2016-11-12T10:47:39.346Z,54.58
2016-11-12T10:48:53.485Z,54.49
2016-11-12T10:50:07.018Z,54.3
2016-11-12T10:51:20.617Z,54.11
2016-11-12T10:52:34.662Z,54.02
2016-11-12T10:53:48.621Z,54.02
2016-11-12T10:55:02.142Z,54.02
2016-11-12T10:56:16.235Z,54.68
2016-11-12T10:57:30.162Z,54.49
2016-11-12T10:58:44.162Z,54.3
2016-11-12T10:59:58.483Z,54.3
2016-11-12T11:01:12.448Z,54.3
2016-11-12T11:02:26.914Z,54.3
2016-11-12T11:03:55.316Z,54.08
2016-11-12T11:05:09.529Z,53.54
2016-11-12T11:06:23.475Z,51.74
2016-11-12T11:07:40.257Z,51.26
2016-11-12T11:08:54.861Z,51.36
2016-11-12T11:10:08.640Z,51.26
2016-11-12T11:11:22.729Z,51.17
2016-11-12T11:12:36.683Z,51.83
2016-11-12T11:13:50.633Z,51.83
2016-11-12T11:15:05.219Z,51.45
2016-11-12T11:16:19.415Z,50.79
2016-11-12T11:17:34.114Z,50.79
2016-11-12T11:18:48.022Z,50.6
2016-11-12T11:20:02.368Z,49.65
2016-11-12T11:21:16.435Z,49.84
2016-11-12T11:22:31.011Z,49.74
2016-11-12T11:23:45.209Z,49.74
2016-11-12T11:24:58.931Z,49.55
2016-11-12T11:26:12.646Z,49.37
2016-11-12T11:27:26.932Z,49.93
2016-11-12T11:28:41.489Z,49.93
2016-11-12T11:29:56.016Z,50.79
2016-11-12T11:31:10.714Z,50.89
2016-11-12T11:32:25.112Z,50.22
2016-11-12T11:33:40.125Z,50.22
2016-11-12T11:34:54.446Z,50.79
2016-11-12T11:36:09.795Z,50.6
2016-11-12T11:37:25.593Z,49.93
2016-11-12T11:38:40.414Z,49.93
2016-11-12T11:39:55.392Z,49.37
2016-11-12T11:41:11.188Z,49.74
2016-11-12T11:42:26.792Z,50.79
2016-11-12T11:43:41.569Z,49.74
2016-11-12T11:44:55.863Z,49.84
2016-11-12T11:46:10.247Z,49.58
2016-11-12T11:47:25.128Z,49.74
2016-11-12T11:48:40.608Z,49.29
2016-11-12T11:49:55.297Z,49.55
2016-11-12T11:51:10.710Z,48.35
2016-11-12T11:52:25.609Z,48.63
2016-11-12T11:53:41.204Z,48.8
2016-11-12T11:54:55.785Z,48.16
2016-11-12T11:56:09.791Z,48.54
2016-11-12T11:57:23.320Z,47.87
2016-11-12T11:58:37.147Z,47.87
2016-11-12T11:59:50.695Z,48.44
2016-11-12T12:01:05.002Z,49.2
2016-11-12T12:02:19.496Z,49.01
2016-11-12T12:03:33.563Z,49.2
2016-11-12T12:04:47.246Z,49.08
2016-11-12T12:06:01.818Z,49.27
2016-11-12T12:07:15.758Z,49.84
2016-11-12T12:08:29.379Z,49.93
2016-11-12T12:09:42.905Z,49.49
2016-11-12T12:10:56.915Z,49.46
2016-11-12T12:12:10.783Z,49.55
2016-11-12T12:13:25.136Z,49.93
2016-11-12T12:14:39.106Z,50.79
2016-11-12T12:15:52.727Z,50.6
2016-11-12T12:17:06.629Z,50.22
2016-11-12T12:18:20.213Z,50.12
2016-11-12T12:19:33.997Z,50.22
2016-11-12T12:21:02.340Z,49.84
2016-11-12T12:22:16.565Z,50.12
2016-11-12T12:23:30.834Z,50.6
2016-11-12T12:24:47.015Z,51.26
2016-11-12T12:26:15.373Z,51.26
2016-11-12T12:27:29.384Z,51.36
2016-11-12T12:28:42.879Z,51.55
2016-11-12T12:30:22.631Z,51.17
2016-11-12T12:31:50.977Z,51.07
2016-11-12T12:33:04.508Z,50.89
2016-11-12T12:34:18.241Z,50.79
2016-11-12T12:35:33.073Z,50.81
2016-11-12T12:36:46.657Z,50.91
2016-11-12T12:38:00.574Z,50.79
2016-11-12T12:39:14.350Z,50.51
2016-11-12T12:40:28.012Z,50.7
2016-11-12T12:41:42.055Z,50.6
2016-11-12T12:42:56.832Z,50.7
2016-11-12T12:44:10.816Z,50.89
2016-11-12T12:45:25.106Z,51.17
2016-11-12T12:46:38.963Z,51.17
2016-11-12T12:47:52.771Z,50.89
2016-11-12T12:49:07.001Z,50.7
2016-11-12T12:50:21.114Z,51.17
2016-11-12T12:51:35.590Z,50.79
2016-11-12T12:52:49.634Z,50.6
2016-11-12T12:54:04.418Z,50.72
2016-11-12T12:55:18.259Z,50.91
2016-11-12T12:56:32.686Z,49.87
2016-11-12T12:57:46.731Z,49.29
2016-11-12T12:59:00.648Z,49.58
2016-11-12T13:00:14.605Z,50.03
2016-11-12T13:01:28.618Z,49.93
2016-11-12T13:02:42.810Z,49.37
2016-11-12T13:03:56.692Z,48.91
2016-11-12T13:05:11.257Z,48.82
2016-11-12T13:06:25.298Z,48.72
2016-11-12T13:07:39.486Z,48.44
2016-11-12T13:08:54.211Z,47.87
2016-11-12T13:10:09.423Z,47.87
2016-11-12T13:11:24.889Z,47.3
2016-11-12T13:12:39.107Z,47.39
2016-11-12T13:13:53.474Z,47.49
2016-11-12T13:15:08.165Z,47.2
2016-11-12T13:16:23.040Z,47.2
2016-11-12T13:17:37.061Z,47.2
2016-11-12T13:18:51.404Z,47.39
2016-11-12T13:20:05.406Z,47.3
2016-11-12T13:21:19.723Z,47.58
2016-11-12T13:22:33.393Z,47.87
2016-11-12T13:24:02.793Z,47.58
2016-11-12T13:25:17.641Z,47.49
2016-11-12T13:26:31.981Z,47.2
2016-11-12T13:27:47.019Z,47.2
2016-11-12T13:29:02.108Z,47.2
2016-11-12T13:30:16.294Z,47.39
2016-11-12T13:31:32.592Z,47.3
2016-11-12T13:32:46.637Z,47.49
2016-11-12T13:34:01.451Z,47.39
2016-11-12T13:35:17.085Z,47.11
2016-11-12T13:36:31.650Z,47.3
2016-11-12T13:37:46.005Z,46.73
2016-11-12T13:39:00.034Z,46.45
2016-11-12T13:40:14.366Z,46.73
2016-11-12T13:41:28.722Z,47.3
2016-11-12T13:42:46.383Z,47.3
2016-11-12T13:44:00.927Z,47.3
2016-11-12T13:45:16.095Z,47.3
2016-11-12T13:46:30.847Z,47.2
2016-11-12T13:47:45.556Z,47.39
2016-11-12T13:49:00.255Z,47.97
2016-11-12T13:50:14.976Z,47.87
2016-11-12T13:51:29.225Z,47.87
2016-11-12T13:52:44.889Z,48.54
2016-11-12T13:53:58.957Z,48.41
2016-11-12T13:55:12.816Z,48.51
2016-11-12T13:56:26.966Z,48.44
2016-11-12T13:57:41.066Z,48.44
2016-11-12T13:59:10.391Z,48.54
2016-11-12T14:00:24.671Z,48.44
2016-11-12T14:01:39.933Z,49.2
2016-11-12T14:02:54.112Z,49.29
2016-11-12T14:04:08.003Z,49.1
2016-11-12T14:05:22.473Z,48.99
2016-11-12T14:06:36.607Z,49.74
2016-11-12T14:07:50.898Z,50.31
2016-11-12T14:09:05.281Z,50.7
2016-11-12T14:10:19.975Z,50.22
2016-11-12T14:11:35.983Z,50.03
2016-11-12T14:12:50.189Z,50.31
2016-11-12T14:14:19.928Z,50.79
2016-11-12T14:15:35.256Z,50.79
2016-11-12T14:16:49.749Z,50.7
2016-11-12T14:18:04.881Z,50.79
2016-11-12T14:19:20.695Z,50.79
2016-11-12T14:20:49.990Z,50.51
2016-11-12T14:22:03.673Z,50.7
2016-11-12T14:23:18.344Z,50.6
2016-11-12T14:24:32.236Z,50.6
2016-11-12T14:25:46.413Z,50.89
2016-11-12T14:27:02.761Z,50.79
2016-11-12T14:28:18.595Z,50.79
2016-11-12T14:29:36.928Z,50.98
2016-11-12T14:30:52.897Z,50.89
2016-11-12T14:32:13.114Z,50.89
2016-11-12T14:33:30.134Z,51.07
2016-11-12T14:34:44.221Z,50.89
2016-11-12T14:35:59.033Z,50.6
2016-11-12T14:37:13.172Z,50.79
2016-11-12T14:38:27.852Z,50.12
2016-11-12T14:39:57.031Z,50.03
2016-11-12T14:41:11.207Z,50.79
2016-11-12T14:42:25.943Z,50.7
2016-11-12T14:43:40.287Z,50.7
2016-11-12T14:44:54.528Z,50.98
2016-11-12T14:46:08.500Z,50.6
2016-11-12T14:47:22.614Z,50.7
2016-11-12T14:48:36.407Z,50.79
2016-11-12T14:49:50.767Z,51.07
2016-11-12T14:51:04.941Z,50.89
2016-11-12T14:52:19.234Z,51.36
2016-11-12T14:53:33.677Z,51.36
2016-11-12T14:54:47.562Z,51.52
2016-11-12T14:56:01.513Z,51.45
2016-11-12T14:57:15.496Z,52
2016-11-12T14:58:29.787Z,52
2016-11-12T14:59:43.543Z,52.09
2016-11-12T15:01:14.697Z,52.66
2016-11-12T15:02:29.054Z,52.85
2016-11-12T15:03:43.438Z,52.95
2016-11-12T15:05:12.017Z,52.85
2016-11-12T15:06:41.548Z,53.52
2016-11-12T15:07:55.725Z,53.8
2016-11-12T15:09:10.097Z,53.7
2016-11-12T15:10:24.399Z,54.18
2016-11-12T15:11:38.979Z,53.99
2016-11-12T15:12:52.924Z,54.56
2016-11-12T15:14:07.169Z,54.27
2016-11-12T15:15:21.706Z,54.37
2016-11-12T15:16:35.842Z,53.8
2016-11-12T15:17:49.474Z,53.8
2016-11-12T15:19:03.681Z,53.52
2016-11-12T15:20:17.733Z,53.89
2016-11-12T15:21:31.999Z,53.89
2016-11-12T15:22:46.074Z,54.06
2016-11-12T15:24:00.451Z,54.56
2016-11-12T15:25:15.375Z,54.25
2016-11-12T15:26:29.188Z,54.82
2016-11-12T15:27:43.607Z,55
2016-11-12T15:28:57.881Z,55.19
2016-11-12T15:30:12.722Z,56.15
2016-11-12T15:31:27.210Z,56.34
2016-11-12T15:32:41.853Z,56.43
2016-11-12T15:34:10.963Z,57.19
2016-11-12T15:35:24.887Z,57.47
2016-11-12T15:36:39.601Z,57.95
2016-11-12T15:37:53.391Z,58.23
2016-11-12T15:39:08.124Z,58.51
2016-11-12T15:40:21.772Z,58.89
2016-11-12T15:41:35.607Z,59.53
2016-11-12T15:42:51.166Z,58.58
2016-11-12T15:44:05.231Z,58.77
2016-11-12T15:45:19.678Z,59.05
2016-11-12T15:46:33.953Z,59.27
2016-11-12T15:47:48.319Z,60.89
2016-11-12T15:49:02.300Z,60.5
2016-11-12T15:50:16.075Z,60.98
2016-11-12T15:51:30.599Z,60.98
2016-11-12T15:52:44.893Z,61.08
2016-11-12T15:53:59.437Z,60.79
2016-11-12T15:55:13.603Z,60.5
2016-11-12T15:56:27.616Z,60.38
2016-11-12T15:57:42.641Z,60.76
2016-11-12T15:58:57.554Z,60.67
2016-11-12T16:00:11.379Z,61.24
2016-11-12T16:01:25.775Z,61.99
2016-11-12T16:02:39.551Z,62.08
2016-11-12T16:03:53.403Z,62.08
2016-11-12T16:05:07.191Z,62.18
2016-11-12T16:06:22.070Z,62.85
2016-11-12T16:07:36.178Z,62.56
2016-11-12T16:08:51.022Z,62.37
2016-11-12T16:10:05.500Z,62.28
2016-11-12T16:11:34.071Z,62.08
2016-11-12T16:12:48.153Z,61.99
2016-11-12T16:14:03.123Z,63.04
2016-11-12T16:15:18.109Z,62.75
2016-11-12T16:16:32.126Z,62.28
2016-11-12T16:17:46.881Z,61.99
2016-11-12T16:19:03.437Z,61.52
2016-11-12T16:20:17.489Z,61.99
2016-11-12T16:21:31.925Z,61.05
2016-11-12T16:22:45.497Z,61.52
2016-11-12T16:23:59.020Z,61.61
2016-11-12T16:25:12.870Z,61.24
2016-11-12T16:26:26.889Z,61.14
2016-11-12T16:27:41.902Z,61.33
2016-11-12T16:28:56.527Z,61.33
2016-11-12T16:30:10.392Z,61.61